메인 페이지
METAR-TAF:

METAR-TAF

공항 :

Volk Field Air National Guard Base

Camp Douglas, 위스콘신, 미국

위도: 43-56N, 경도: 090-16W, 고도: 277m

현재 날씨관측

예보는 38분 전, 14:56시(UTC)에 발표되었습니다.
동북동10kt
온도 2°C
습도 100%
기압 1019 hPa
시정: 6.4km
고도 1800ft 상공 흐림
약한비, 박무

METAR: KVOK 221456Z 06010KT 4SM -RA BR OVC018 02/02 A3010 RMK AO2A SLP206 60001 58013

시각: 10:34 (15:34 UTC)

예보

예보는 57분 전, 14:37시(UTC)에 발표되었습니다.
예보 대상 시간: 22일 14시부터 23일 15시까지 (UTC)
여러 방향의 바람 6kt
시정 10km 이상
고도 3000ft 상공 구름 보통
전환 중
22일 14시부터 22일 15시까지 (UTC)
9kt
시정: 9000m
고도 1500ft 상공 흐림
약한소나기
일시적
22일 15시부터 22일 20시까지 (UTC)
고도 1000ft 상공 흐림, 적란운.
뇌우, 약한비
전환 중
22일 19시부터 22일 20시까지 (UTC)
12kt
시정: 9000m
고도 500ft 상공 흐림
약한소나기
전환 중
23일 10시부터 23일 11시까지 (UTC)
북북서12kt
시정 10km 이상
고도 1000ft 상공 흐림

TAF: KVOK 221437Z 2214/2315 VRB06KT 9999 SCT030 QNH3010INS BECMG 2214/2215 08009KT 9000 -SHRA OVC015 510053 QNH3001INS TEMPO 2215/2220 -TSRA OVC010CB BECMG 2219/2220 08012KT 9000 -SHRA OVC005 510053 QNH2982INS BECMG 2310/2311 34012KT 9999 NSW OVC010 QNH2999INS TX07/2222Z TN00/2215Z

4,000개 이상의 공항 관측 자료 및 예보 (METAR 및 TAF 보고).

지도상에서 검색 가능한 기상관측소가 노란 점과 빨간 점으로 표시되어 있습니다.

기상관측소 명을 보려면 표시 위로 마우스를 이동하세요.

날씨 관측과 예보를 보려면 클릭하세요.

지도 변경 : 확대하려면 엑스 표시가 있는 녹색 버튼, 축소하려면 빼기 표시가 있는 녹색 버튼, 다음 페이지의 지도를 보려면 녹색 화살표를 클릭하세요.


METAR-TAF: